Terminal Aerodrome Forecast
Issued by NWS Austin/San Antonio, TX

Home | Current Version | Previous Version | Text Only | Print | Product List | Glossary On
Versions: 1 2 3 4 5 6 7 8 9 10 11 12 13 14 15 16 17 18 19 20 21 22 23 24
854
FTUS44 KEWX 301129
TAFAUS
TAF
KAUS 301129Z 3012/0118 03012KT P6SM FEW050 BKN100
     FM301300 36010KT P6SM BKN015
     FM301500 36005KT P6SM BKN025
     FM301700 02005KT P6SM BKN250
     FM011200 02005KT P6SM OVC025=

USA.gov is the U.S. government's official web portal to all federal, state and local government web resources and services.